createdAt,value
2017-09-11T00:02:22.671Z,98.30
2017-09-11T00:04:51.675Z,98.50
2017-09-11T00:07:19.930Z,98.70
2017-09-11T00:09:47.410Z,98.70
2017-09-11T00:12:15.680Z,98.70
2017-09-11T00:14:43.177Z,98.70
2017-09-11T00:17:10.677Z,98.90
2017-09-11T00:19:38.176Z,99.10
2017-09-11T00:22:06.432Z,99.00
2017-09-11T00:24:33.925Z,98.90
2017-09-11T00:27:01.409Z,99.30
2017-09-11T00:29:28.966Z,99.10
2017-09-11T00:31:56.469Z,99.20
2017-09-11T00:34:23.967Z,99.20
2017-09-11T00:36:51.459Z,99.30
2017-09-11T00:39:18.946Z,99.40
2017-09-11T00:41:46.446Z,99.30
2017-09-11T00:44:13.930Z,99.30
2017-09-11T00:46:41.409Z,99.40
2017-09-11T00:49:08.903Z,99.50
2017-09-11T00:51:37.162Z,99.60
2017-09-11T00:54:04.652Z,99.60
2017-09-11T00:56:32.142Z,99.90
2017-09-11T00:58:59.640Z,99.90
2017-09-11T01:01:27.121Z,99.90
2017-09-11T01:03:55.389Z,99.90
2017-09-11T01:06:23.636Z,99.90
2017-09-11T01:08:51.113Z,99.90
2017-09-11T01:11:18.598Z,99.90
2017-09-11T01:13:46.874Z,99.90
2017-09-11T01:16:15.123Z,99.90
2017-09-11T01:18:42.618Z,99.90
2017-09-11T01:21:10.137Z,99.90
2017-09-11T01:23:37.626Z,99.90
2017-09-11T01:26:05.883Z,99.90
2017-09-11T01:28:33.375Z,99.90
2017-09-11T01:31:00.862Z,99.90
2017-09-11T01:33:28.353Z,99.90
2017-09-11T01:35:55.844Z,99.90
2017-09-11T01:38:23.338Z,99.90
2017-09-11T01:40:50.829Z,99.90
2017-09-11T01:43:18.315Z,99.90
2017-09-11T01:45:46.584Z,99.90
2017-09-11T01:48:14.852Z,99.90
2017-09-11T01:50:43.103Z,99.90
2017-09-11T01:53:10.593Z,99.90
2017-09-11T01:55:38.838Z,99.90
2017-09-11T01:58:06.332Z,99.90
2017-09-11T02:00:34.586Z,99.90
2017-09-11T02:03:02.070Z,99.90
2017-09-11T02:05:30.332Z,99.90
2017-09-11T02:07:57.826Z,99.90
2017-09-11T02:10:25.320Z,99.90
2017-09-11T02:12:52.805Z,99.90
2017-09-11T02:15:21.062Z,99.90
2017-09-11T02:17:48.551Z,99.90
2017-09-11T02:20:16.807Z,99.90
2017-09-11T02:22:44.308Z,99.90
2017-09-11T02:25:12.568Z,99.90
2017-09-11T02:27:40.836Z,99.90
2017-09-11T02:30:08.323Z,99.90
2017-09-11T02:32:36.582Z,99.90
2017-09-11T02:35:04.844Z,99.90
2017-09-11T02:37:33.111Z,99.90
2017-09-11T02:40:00.612Z,99.90
2017-09-11T02:42:28.861Z,99.90
2017-09-11T02:44:56.341Z,99.90
2017-09-11T02:47:24.596Z,99.90
2017-09-11T02:49:52.089Z,99.90
2017-09-11T02:52:19.570Z,99.90
2017-09-11T02:54:47.071Z,99.90
2017-09-11T02:57:14.557Z,99.90
2017-09-11T02:59:42.822Z,99.90
2017-09-11T03:02:11.083Z,99.90
2017-09-11T03:04:38.561Z,99.90
2017-09-11T03:07:06.820Z,99.90
2017-09-11T03:09:35.083Z,99.90
2017-09-11T03:12:02.584Z,99.90
2017-09-11T03:14:30.075Z,99.90
2017-09-11T03:16:57.574Z,99.90
2017-09-11T03:19:25.062Z,99.90
2017-09-11T03:21:52.558Z,99.90
2017-09-11T03:24:20.069Z,99.90
2017-09-11T03:26:48.332Z,99.90
2017-09-11T03:29:17.323Z,99.90
2017-09-11T03:31:44.824Z,99.90
2017-09-11T03:34:12.321Z,99.90
2017-09-11T03:36:39.801Z,99.90
2017-09-11T03:39:07.291Z,99.90
2017-09-11T03:41:34.783Z,99.90
2017-09-11T03:44:02.278Z,99.90
2017-09-11T03:46:29.762Z,99.90
2017-09-11T03:48:58.017Z,99.90
2017-09-11T03:51:25.510Z,99.90
2017-09-11T03:53:53.005Z,99.90
2017-09-11T03:56:20.507Z,99.90
2017-09-11T03:58:48.768Z,99.90
2017-09-11T04:01:16.252Z,99.90
2017-09-11T04:03:44.512Z,99.90
2017-09-11T04:06:11.994Z,99.90
2017-09-11T04:08:39.486Z,99.90
2017-09-11T04:11:06.978Z,99.90
2017-09-11T04:13:34.480Z,99.90
2017-09-11T04:16:01.970Z,99.90
2017-09-11T04:18:29.453Z,99.90
2017-09-11T04:20:56.933Z,99.90
2017-09-11T04:23:25.188Z,99.90
2017-09-11T04:25:52.669Z,99.90
2017-09-11T04:28:20.931Z,99.90
2017-09-11T04:30:49.173Z,99.90
2017-09-11T04:33:16.662Z,99.90
2017-09-11T04:35:44.168Z,99.90
2017-09-11T04:38:11.664Z,99.90
2017-09-11T04:40:39.157Z,99.90
2017-09-11T04:43:07.408Z,99.90
2017-09-11T04:45:34.894Z,99.90
2017-09-11T04:48:03.154Z,99.90
2017-09-11T04:50:30.648Z,99.90
2017-09-11T04:52:58.184Z,99.90
2017-09-11T04:55:25.669Z,99.90
2017-09-11T04:57:53.154Z,99.90
2017-09-11T05:00:20.647Z,99.90
2017-09-11T05:02:48.143Z,99.90
2017-09-11T05:05:16.403Z,99.90
2017-09-11T05:07:44.663Z,99.90
2017-09-11T05:10:12.155Z,99.90
2017-09-11T05:12:39.642Z,99.90
2017-09-11T05:15:07.169Z,99.90
2017-09-11T05:17:34.638Z,99.90
2017-09-11T05:20:02.113Z,99.90
2017-09-11T05:22:29.608Z,99.90
2017-09-11T05:24:57.095Z,99.90
2017-09-11T05:27:24.656Z,99.90
2017-09-11T05:29:52.168Z,99.90
2017-09-11T05:32:19.659Z,99.90
2017-09-11T05:34:47.162Z,99.90
2017-09-11T05:37:14.647Z,99.90
2017-09-11T05:39:42.147Z,99.90
2017-09-11T05:42:10.390Z,99.90
2017-09-11T05:44:37.878Z,99.90
2017-09-11T05:47:05.367Z,99.90
2017-09-11T05:49:32.859Z,99.90
2017-09-11T05:52:00.349Z,99.90
2017-09-11T05:54:27.833Z,99.90
2017-09-11T05:56:56.099Z,99.90
2017-09-11T05:59:24.359Z,99.90
2017-09-11T06:01:51.861Z,99.90
2017-09-11T06:04:19.346Z,99.90
2017-09-11T06:06:46.834Z,99.40
2017-09-11T06:09:14.319Z,99.60
2017-09-11T06:11:41.814Z,99.90
2017-09-11T06:14:09.314Z,99.90
2017-09-11T06:16:36.797Z,99.90
2017-09-11T06:19:05.050Z,98.70
2017-09-11T06:21:33.318Z,98.50
2017-09-11T06:24:00.813Z,98.60
2017-09-11T06:26:29.072Z,97.90
2017-09-11T06:28:56.558Z,97.90
2017-09-11T06:31:24.044Z,99.10
2017-09-11T06:33:51.539Z,99.80
2017-09-11T06:36:19.031Z,99.70
2017-09-11T06:38:46.521Z,99.90
2017-09-11T06:41:14.020Z,99.90
2017-09-11T06:43:41.515Z,99.20
2017-09-11T06:46:09.016Z,99.80
2017-09-11T06:48:36.507Z,99.60
2017-09-11T06:51:03.994Z,99.30
2017-09-11T06:53:31.480Z,99.60
2017-09-11T06:55:58.953Z,99.70
2017-09-11T06:58:26.448Z,99.10
2017-09-11T07:00:54.707Z,99.60
2017-09-11T07:03:22.199Z,99.50
2017-09-11T07:05:49.683Z,99.30
2017-09-11T07:08:17.185Z,99.20
2017-09-11T07:10:44.671Z,98.90
2017-09-11T07:13:21.831Z,99.30
2017-09-11T07:15:49.318Z,99.30
2017-09-11T07:18:17.566Z,99.40
2017-09-11T07:20:45.066Z,99.30
2017-09-11T07:23:12.559Z,99.80
2017-09-11T07:25:40.055Z,99.90
2017-09-11T07:28:08.307Z,99.90
2017-09-11T07:30:35.790Z,99.60
2017-09-11T07:33:04.043Z,99.90
2017-09-11T07:35:31.526Z,99.90
2017-09-11T07:37:59.774Z,99.70
2017-09-11T07:40:27.263Z,99.70
2017-09-11T07:42:55.522Z,99.90
2017-09-11T07:45:23.014Z,99.90
2017-09-11T07:47:51.281Z,99.90
2017-09-11T07:50:19.545Z,99.90
2017-09-11T07:52:47.028Z,99.90
2017-09-11T07:55:15.278Z,99.90
2017-09-11T07:57:42.763Z,99.90
2017-09-11T08:00:11.028Z,99.90
2017-09-11T08:02:39.286Z,99.90
2017-09-11T08:05:06.774Z,99.90
2017-09-11T08:07:34.267Z,99.90
2017-09-11T08:10:01.772Z,99.90
2017-09-11T08:12:30.030Z,99.90
2017-09-11T08:14:57.510Z,99.90
2017-09-11T08:17:25.000Z,99.90
2017-09-11T08:19:52.495Z,99.90
2017-09-11T08:22:19.976Z,99.90
2017-09-11T08:24:47.492Z,99.90
2017-09-11T08:27:14.987Z,99.90
2017-09-11T08:29:42.502Z,99.90
2017-09-11T08:32:10.003Z,99.90
2017-09-11T08:34:37.530Z,99.90
2017-09-11T08:37:05.449Z,99.90
2017-09-11T08:39:32.934Z,99.90
2017-09-11T08:42:01.173Z,99.90
2017-09-11T08:44:28.670Z,99.90
2017-09-11T08:46:56.927Z,99.90
2017-09-11T08:49:25.251Z,99.90
2017-09-11T08:51:52.761Z,99.90
2017-09-11T08:54:20.233Z,99.90
2017-09-11T08:56:47.733Z,99.90
2017-09-11T08:59:15.214Z,99.90
2017-09-11T09:01:42.708Z,99.90
2017-09-11T09:04:10.961Z,99.90
2017-09-11T09:06:38.455Z,99.90
2017-09-11T09:09:05.940Z,99.90
2017-09-11T09:11:33.427Z,99.90
2017-09-11T09:14:00.911Z,99.90
2017-09-11T09:16:29.179Z,99.90
2017-09-11T09:18:57.433Z,99.90
2017-09-11T09:21:24.929Z,99.90
2017-09-11T09:23:53.186Z,99.90
2017-09-11T09:26:20.677Z,99.90
2017-09-11T09:28:48.930Z,99.90
2017-09-11T09:31:17.177Z,99.90
2017-09-11T09:33:44.666Z,99.90
2017-09-11T09:36:12.305Z,99.90
2017-09-11T09:38:39.808Z,99.90
2017-09-11T09:41:07.300Z,99.90
2017-09-11T09:43:34.791Z,99.90
2017-09-11T09:46:02.292Z,99.90
2017-09-11T09:48:29.784Z,99.90
2017-09-11T09:50:57.281Z,99.90
2017-09-11T09:53:24.780Z,99.90
2017-09-11T09:55:52.276Z,99.90
2017-09-11T09:58:19.768Z,99.90
2017-09-11T10:00:47.282Z,99.90
2017-09-11T10:03:14.792Z,99.90
2017-09-11T10:05:43.052Z,99.90
2017-09-11T10:08:10.548Z,99.90
2017-09-11T10:10:38.800Z,99.90
2017-09-11T10:13:07.050Z,99.90
2017-09-11T10:15:34.542Z,99.90
2017-09-11T10:18:02.812Z,99.90
2017-09-11T10:20:30.294Z,99.90
2017-09-11T10:22:57.778Z,99.90
2017-09-11T10:25:25.269Z,99.90
2017-09-11T10:27:52.762Z,99.90
2017-09-11T10:30:21.010Z,99.90
2017-09-11T10:32:48.502Z,99.90
2017-09-11T10:35:16.749Z,99.90
2017-09-11T10:37:44.238Z,99.90
2017-09-11T10:40:11.738Z,99.90
2017-09-11T10:42:39.226Z,99.90
2017-09-11T10:45:07.467Z,99.90
2017-09-11T10:47:34.946Z,99.90
2017-09-11T10:50:02.421Z,99.90
2017-09-11T10:52:29.913Z,99.90
2017-09-11T10:54:57.406Z,99.90
2017-09-11T10:57:24.896Z,99.90
2017-09-11T10:59:52.386Z,99.90
2017-09-11T11:02:20.694Z,99.90
2017-09-11T11:04:48.196Z,99.90
2017-09-11T11:07:15.676Z,99.90
2017-09-11T11:09:43.939Z,99.90
2017-09-11T11:12:11.425Z,99.90
2017-09-11T11:14:39.670Z,99.90
2017-09-11T11:17:07.285Z,99.90
2017-09-11T11:20:05.484Z,99.90
2017-09-11T11:22:32.961Z,99.90
2017-09-11T11:25:00.454Z,99.90
2017-09-11T11:27:28.714Z,99.90
2017-09-11T11:29:56.208Z,99.90
2017-09-11T11:32:23.701Z,99.90
2017-09-11T11:34:51.191Z,99.90
2017-09-11T11:37:19.446Z,99.90
2017-09-11T11:39:46.934Z,99.90
2017-09-11T11:42:15.181Z,99.90
2017-09-11T11:44:42.678Z,99.90
2017-09-11T11:47:10.930Z,99.90
2017-09-11T11:49:38.413Z,99.90
2017-09-11T11:52:06.664Z,99.90
2017-09-11T11:54:34.149Z,99.90
2017-09-11T11:57:02.389Z,99.90
2017-09-11T11:59:29.874Z,99.90
2017-09-11T12:01:58.130Z,99.90
2017-09-11T12:04:25.613Z,99.90
2017-09-11T12:06:53.864Z,99.10
2017-09-11T12:09:21.359Z,99.10
2017-09-11T12:11:49.596Z,99.90
2017-09-11T12:14:17.077Z,99.90
2017-09-11T12:16:44.566Z,99.90
2017-09-11T12:19:12.067Z,99.90
2017-09-11T12:21:39.560Z,99.90
2017-09-11T12:24:07.823Z,99.90
2017-09-11T12:26:35.329Z,99.90
2017-09-11T12:29:02.819Z,99.90
2017-09-11T12:31:30.301Z,99.90
2017-09-11T12:33:57.790Z,99.90
2017-09-11T12:36:25.295Z,99.90
2017-09-11T12:38:52.791Z,99.90
2017-09-11T12:41:21.047Z,99.90
2017-09-11T12:43:50.064Z,99.90
2017-09-11T12:46:18.321Z,99.90
2017-09-11T12:48:45.809Z,99.90
2017-09-11T12:51:14.057Z,99.30
2017-09-11T12:53:41.540Z,99.30
2017-09-11T12:56:09.781Z,99.90
2017-09-11T12:58:37.270Z,99.90
2017-09-11T13:01:05.528Z,99.90
2017-09-11T13:03:33.013Z,99.90
2017-09-11T13:06:01.270Z,99.70
2017-09-11T13:08:28.758Z,99.70
2017-09-11T13:10:57.014Z,99.90
2017-09-11T13:13:24.511Z,99.60
2017-09-11T13:15:51.986Z,99.60
2017-09-11T13:18:19.477Z,99.90
2017-09-11T13:20:46.960Z,99.90
2017-09-11T13:23:14.479Z,99.50
2017-09-11T13:25:41.973Z,99.20
2017-09-11T13:28:10.294Z,99.00
2017-09-11T13:30:37.778Z,99.00
2017-09-11T13:33:05.278Z,99.00
2017-09-11T13:35:33.530Z,99.20
2017-09-11T13:38:01.026Z,99.20
2017-09-11T13:40:28.523Z,99.00
2017-09-11T13:42:56.008Z,98.60
2017-09-11T13:45:25.000Z,98.90
2017-09-11T13:47:52.490Z,98.90
2017-09-11T13:50:20.734Z,98.80
2017-09-11T13:52:48.223Z,98.80
2017-09-11T13:55:16.482Z,98.80
2017-09-11T13:57:43.966Z,98.80
2017-09-11T14:00:11.449Z,98.70
2017-09-11T14:02:38.934Z,98.00
2017-09-11T14:05:06.428Z,98.40
2017-09-11T14:07:34.681Z,98.10
2017-09-11T14:10:02.185Z,98.10
2017-09-11T14:12:29.680Z,97.90
2017-09-11T14:14:57.170Z,98.20
2017-09-11T14:17:25.434Z,97.80
2017-09-11T14:19:52.927Z,97.80
2017-09-11T14:22:21.172Z,98.30
2017-09-11T14:24:48.662Z,98.20
2017-09-11T14:27:16.925Z,97.70
2017-09-11T14:29:45.173Z,97.80
2017-09-11T14:32:12.694Z,97.80
2017-09-11T14:34:40.179Z,97.50
2017-09-11T14:37:07.666Z,96.00
2017-09-11T14:39:35.167Z,97.00
2017-09-11T14:42:02.649Z,96.00
2017-09-11T14:44:30.140Z,96.60
2017-09-11T14:46:57.631Z,97.20
2017-09-11T14:49:25.878Z,97.30
2017-09-11T14:51:53.363Z,97.20
2017-09-11T14:54:21.617Z,97.70
2017-09-11T14:56:49.098Z,97.60
2017-09-11T14:59:17.360Z,97.60
2017-09-11T15:01:45.614Z,97.20
2017-09-11T15:04:13.102Z,97.20
2017-09-11T15:06:41.363Z,97.10
2017-09-11T15:09:09.605Z,97.80
2017-09-11T15:11:37.082Z,97.50
2017-09-11T15:14:04.566Z,98.00
2017-09-11T15:16:32.828Z,97.00
2017-09-11T15:19:00.326Z,97.00
2017-09-11T15:21:28.577Z,97.10
2017-09-11T15:23:57.576Z,96.40
2017-09-11T15:26:25.840Z,97.30
2017-09-11T15:28:53.339Z,97.00
2017-09-11T15:31:21.590Z,97.20
2017-09-11T15:33:50.578Z,96.80
2017-09-11T15:36:18.839Z,97.00
2017-09-11T15:38:46.326Z,97.10
2017-09-11T15:41:14.582Z,97.30
2017-09-11T15:43:42.076Z,97.20
2017-09-11T15:46:10.331Z,96.90
2017-09-11T15:48:39.329Z,96.90
2017-09-11T15:51:07.662Z,96.40
2017-09-11T15:53:35.156Z,95.90
2017-09-11T15:56:02.633Z,96.20
2017-09-11T15:58:30.874Z,96.10
2017-09-11T16:00:58.354Z,96.00
2017-09-11T16:03:25.833Z,96.10
2017-09-11T16:05:54.143Z,95.20
2017-09-11T16:08:21.631Z,95.20
2017-09-11T16:10:49.114Z,95.50
2017-09-11T16:13:18.101Z,95.00
2017-09-11T16:15:45.578Z,95.30
2017-09-11T16:18:13.863Z,95.00
2017-09-11T16:20:42.164Z,94.60
2017-09-11T16:23:09.689Z,94.60
2017-09-11T16:25:37.942Z,95.00
2017-09-11T16:28:05.443Z,95.00
2017-09-11T16:30:33.704Z,94.30
2017-09-11T16:33:01.957Z,94.40
2017-09-11T16:35:29.447Z,94.30
2017-09-11T16:37:57.717Z,94.90
2017-09-11T16:40:25.999Z,94.90
2017-09-11T16:42:54.266Z,94.80
2017-09-11T16:45:22.513Z,95.40
2017-09-11T16:47:49.998Z,95.10
2017-09-11T16:50:18.254Z,95.60
2017-09-11T16:52:45.745Z,95.40
2017-09-11T16:55:14.004Z,97.60
2017-09-11T16:57:42.270Z,95.20
2017-09-11T17:00:09.767Z,95.20
2017-09-11T17:02:38.022Z,95.70
2017-09-11T17:05:05.502Z,95.60
2017-09-11T17:07:33.745Z,95.90
2017-09-11T17:10:01.241Z,95.90
2017-09-11T17:12:29.506Z,96.60
2017-09-11T17:14:57.763Z,96.90
2017-09-11T17:17:25.256Z,96.90
2017-09-11T17:19:53.507Z,96.90
2017-09-11T17:22:21.764Z,96.90
2017-09-11T17:24:49.258Z,96.90
2017-09-11T17:27:17.518Z,97.30
2017-09-11T17:29:46.352Z,97.20
2017-09-11T17:32:15.332Z,97.30
2017-09-11T17:34:44.144Z,96.90
2017-09-11T17:37:12.013Z,96.90
2017-09-11T17:39:39.799Z,97.10
2017-09-11T17:42:07.852Z,97.30
2017-09-11T17:44:35.535Z,97.40
2017-09-11T17:47:03.036Z,97.90
2017-09-11T17:49:31.293Z,98.00
2017-09-11T17:52:00.280Z,98.20
2017-09-11T17:54:27.775Z,98.20
2017-09-11T17:56:56.038Z,97.90
2017-09-11T17:59:24.302Z,98.30
2017-09-11T18:01:51.795Z,98.20
2017-09-11T18:04:19.291Z,98.10
2017-09-11T18:06:46.778Z,98.10
2017-09-11T18:09:14.282Z,98.10
2017-09-11T18:11:41.772Z,98.00
2017-09-11T18:14:09.257Z,98.20
2017-09-11T18:16:36.754Z,98.00
2017-09-11T18:19:04.247Z,98.10
2017-09-11T18:21:31.730Z,98.20
2017-09-11T18:23:59.218Z,98.10
2017-09-11T18:26:27.464Z,98.00
2017-09-11T18:28:54.950Z,98.00
2017-09-11T18:31:23.209Z,98.00
2017-09-11T18:33:51.453Z,98.10
2017-09-11T18:36:18.947Z,98.00
2017-09-11T18:38:47.948Z,98.40
2017-09-11T18:41:16.229Z,98.10
2017-09-11T18:43:44.487Z,98.30
2017-09-11T18:46:11.983Z,98.30
2017-09-11T18:48:39.534Z,98.10
2017-09-11T18:51:07.794Z,98.10
2017-09-11T18:53:36.046Z,98.60
2017-09-11T18:56:03.593Z,98.60
2017-09-11T18:58:31.103Z,98.60
2017-09-11T19:00:59.364Z,99.00
2017-09-11T19:03:28.362Z,99.00
2017-09-11T19:05:56.627Z,99.00
2017-09-11T19:08:24.110Z,98.90
2017-09-11T19:10:52.364Z,99.10
2017-09-11T19:13:19.862Z,99.10
2017-09-11T19:15:48.171Z,99.10
2017-09-11T19:18:15.655Z,99.00
2017-09-11T19:20:43.157Z,99.00
2017-09-11T19:23:10.643Z,99.00
2017-09-11T19:25:38.543Z,99.00
2017-09-11T19:28:06.035Z,99.10
2017-09-11T19:30:34.285Z,99.20
2017-09-11T19:33:01.775Z,99.10
2017-09-11T19:35:30.038Z,99.40
2017-09-11T19:37:58.291Z,99.30
2017-09-11T19:40:25.787Z,99.30
2017-09-11T19:42:54.046Z,99.60
2017-09-11T19:45:21.555Z,99.50
2017-09-11T19:47:49.044Z,99.60
2017-09-11T19:50:16.538Z,99.60
2017-09-11T19:52:44.813Z,99.80
2017-09-11T19:55:13.074Z,99.80
2017-09-11T19:57:40.557Z,99.70
2017-09-11T20:00:08.815Z,99.80
2017-09-11T20:02:37.075Z,99.70
2017-09-11T20:05:04.566Z,99.70
2017-09-11T20:07:32.821Z,99.90
2017-09-11T20:10:00.326Z,99.90
2017-09-11T20:12:27.829Z,99.90
2017-09-11T20:14:55.320Z,99.90
2017-09-11T20:17:23.584Z,99.90
2017-09-11T20:19:51.858Z,99.90
2017-09-11T20:22:20.129Z,99.90
2017-09-11T20:24:47.617Z,99.90
2017-09-11T20:27:15.886Z,99.90
2017-09-11T20:29:44.140Z,99.90
2017-09-11T20:32:11.630Z,99.90
2017-09-11T20:34:39.901Z,99.90
2017-09-11T20:37:08.152Z,99.90
2017-09-11T20:39:35.665Z,99.90
2017-09-11T20:42:03.162Z,99.90
2017-09-11T20:44:30.650Z,99.90
2017-09-11T20:46:58.900Z,99.90
2017-09-11T20:49:26.394Z,99.90
2017-09-11T20:51:54.651Z,99.90
2017-09-11T20:54:22.910Z,99.90
2017-09-11T20:56:50.414Z,99.90
2017-09-11T20:59:17.922Z,99.90
2017-09-11T21:01:45.410Z,99.90
2017-09-11T21:04:13.670Z,99.90
2017-09-11T21:06:41.158Z,99.90
2017-09-11T21:09:09.404Z,99.90
2017-09-11T21:11:36.896Z,99.90
2017-09-11T21:14:05.160Z,99.90
2017-09-11T21:16:33.416Z,99.90
2017-09-11T21:19:00.915Z,99.90
2017-09-11T21:21:29.166Z,99.90
2017-09-11T21:23:56.649Z,99.90
2017-09-11T21:26:24.945Z,99.90
2017-09-11T21:28:52.424Z,99.90
2017-09-11T21:31:19.908Z,99.90
2017-09-11T21:33:48.345Z,99.90
2017-09-11T21:36:15.834Z,99.90
2017-09-11T21:38:43.329Z,99.90
2017-09-11T21:41:11.584Z,99.90
2017-09-11T21:43:39.070Z,99.90
2017-09-11T21:46:07.357Z,99.90
2017-09-11T21:48:35.620Z,99.90
2017-09-11T21:51:03.860Z,99.90
2017-09-11T21:53:31.373Z,99.90
2017-09-11T21:55:59.631Z,99.90
2017-09-11T21:58:27.895Z,99.90
2017-09-11T22:00:56.146Z,99.90
2017-09-11T22:03:23.650Z,99.90
2017-09-11T22:05:51.901Z,99.90
2017-09-11T22:08:19.377Z,99.90
2017-09-11T22:10:47.640Z,99.90
2017-09-11T22:13:15.136Z,99.90
2017-09-11T22:15:42.631Z,99.90
2017-09-11T22:18:10.129Z,99.90
2017-09-11T22:20:38.389Z,99.90
2017-09-11T22:23:05.878Z,99.90
2017-09-11T22:25:34.126Z,99.90
2017-09-11T22:28:01.614Z,99.90
2017-09-11T22:30:29.862Z,99.90
2017-09-11T22:32:57.352Z,99.90
2017-09-11T22:35:25.608Z,99.90
2017-09-11T22:37:53.871Z,99.90
2017-09-11T22:40:21.364Z,99.90
2017-09-11T22:42:49.632Z,99.90
2017-09-11T22:45:17.896Z,99.90
2017-09-11T22:47:46.160Z,99.90
2017-09-11T22:50:13.665Z,99.90
2017-09-11T22:52:41.145Z,99.90
2017-09-11T22:55:08.638Z,99.90
2017-09-11T22:57:36.131Z,99.90
2017-09-11T23:00:04.386Z,99.90
2017-09-11T23:02:31.871Z,99.90
2017-09-11T23:05:00.123Z,99.90
2017-09-11T23:07:27.711Z,99.90
2017-09-11T23:09:55.963Z,99.90
2017-09-11T23:12:24.226Z,99.90
2017-09-11T23:14:51.732Z,99.90
2017-09-11T23:17:19.222Z,99.90
2017-09-11T23:19:46.711Z,99.90
2017-09-11T23:22:14.189Z,99.90
2017-09-11T23:24:42.446Z,99.90
2017-09-11T23:27:09.925Z,99.90
2017-09-11T23:29:38.165Z,99.90
2017-09-11T23:32:05.646Z,99.90
2017-09-11T23:34:33.134Z,99.90
2017-09-11T23:37:01.386Z,99.90
2017-09-11T23:39:28.865Z,99.90
2017-09-11T23:41:57.118Z,99.90
2017-09-11T23:44:24.610Z,99.90
2017-09-11T23:46:52.086Z,99.90
2017-09-11T23:49:19.579Z,99.90
2017-09-11T23:51:47.071Z,99.90
2017-09-11T23:54:15.327Z,99.90
2017-09-11T23:56:42.827Z,99.90
2017-09-11T23:59:10.319Z,99.90
